DECAM EDQD-EDDN

Flight info

Callsign DECAM
Flight time N/A
Altitude 7000
Route EDQD DCT EDDN
Aircraft SR22/L-SDGRY/S

Departure

Time 2026-04-29 15:20
Airport Bayreuth Airport (EDQD)

Arrival

Time N/A
Airport Nuremberg Airport (EDDN)
Time Latitude Longitude Altitude Speed Heading
2026-04-29 15:12 49.98347 11.63940 1599 ft 0 kts 216°
2026-04-29 15:16 49.98343 11.63930 1599 ft 5 kts 249°
2026-04-29 15:16 49.98353 11.63832 1598 ft 14 kts 241°
2026-04-29 15:16 49.98296 11.63683 1598 ft 18 kts 240°
2026-04-29 15:17 49.98257 11.63578 1598 ft 0 kts 240°
2026-04-29 15:19 49.98256 11.63574 1598 ft 2 kts 241°
2026-04-29 15:19 49.98256 11.63496 1597 ft 13 kts 300°
2026-04-29 15:19 49.98301 11.63527 1595 ft 0 kts 62°
2026-04-29 15:19 49.98416 11.63835 1596 ft 68 kts 54°
2026-04-29 15:20 49.98715 11.64632 1727 ft 97 kts 54°
2026-04-29 15:20 49.99123 11.65568 2019 ft 110 kts 46°
2026-04-29 15:20 49.99603 11.66547 2290 ft 116 kts 62°
2026-04-29 15:20 49.99428 11.67785 2420 ft 140 kts 125°
2026-04-29 15:21 49.98490 11.68456 2559 ft 150 kts 152°
2026-04-29 15:21 49.97432 11.68359 2623 ft 166 kts 204°
2026-04-29 15:21 49.96652 11.67091 2787 ft 164 kts 236°
2026-04-29 15:21 49.96042 11.65652 3132 ft 157 kts 237°
2026-04-29 15:22 49.95363 11.64284 3345 ft 165 kts 224°
2026-04-29 15:22 49.94503 11.63096 3684 ft 167 kts 218°
2026-04-29 15:22 49.93604 11.61843 3725 ft 182 kts 220°
2026-04-29 15:22 49.92647 11.60506 3840 ft 186 kts 215°
2026-04-29 15:23 49.91636 11.59281 3930 ft 189 kts 215°
2026-04-29 15:23 49.90587 11.58032 3905 ft 192 kts 216°
2026-04-29 15:23 49.89518 11.56778 3904 ft 192 kts 214°
2026-04-29 15:23 49.88453 11.55496 3898 ft 194 kts 214°
2026-04-29 15:24 49.87394 11.54199 3911 ft 194 kts 215°
2026-04-29 15:24 49.86322 11.52927 3900 ft 194 kts 214°
2026-04-29 15:24 49.85257 11.51665 3901 ft 191 kts 215°
2026-04-29 15:24 49.84212 11.50388 3894 ft 196 kts 217°
2026-04-29 15:25 49.83175 11.49077 3593 ft 192 kts 216°
2026-04-29 15:25 49.82109 11.47822 3338 ft 191 kts 214°
2026-04-29 15:25 49.81088 11.46622 3344 ft 179 kts 214°
2026-04-29 15:25 49.80091 11.45444 3354 ft 181 kts 214°
2026-04-29 15:26 49.79083 11.44272 3342 ft 181 kts 214°
2026-04-29 15:26 49.78086 11.43075 3353 ft 182 kts 216°
2026-04-29 15:26 49.77088 11.41874 3404 ft 182 kts 214°
2026-04-29 15:26 49.76075 11.40641 3414 ft 187 kts 215°
2026-04-29 15:27 49.75036 11.39432 3395 ft 186 kts 214°
2026-04-29 15:27 49.74024 11.38219 3400 ft 188 kts 215°
2026-04-29 15:27 49.72997 11.36969 3394 ft 187 kts 215°
2026-04-29 15:27 49.71974 11.35751 3413 ft 186 kts 214°
2026-04-29 15:28 49.70953 11.34520 3391 ft 185 kts 214°
2026-04-29 15:28 49.70264 11.33701 3400 ft 186 kts 215°
2026-04-29 15:28 49.68883 11.32091 3391 ft 187 kts 214°
2026-04-29 15:28 49.67842 11.30908 3388 ft 183 kts 215°
2026-04-29 15:29 49.66850 11.29739 3385 ft 176 kts 215°
2026-04-29 15:29 49.64991 11.27530 3180 ft 169 kts 215°
2026-04-29 15:30 49.63164 11.25338 2999 ft 159 kts 214°
2026-04-29 15:30 49.62313 11.24304 2980 ft 153 kts 215°
2026-04-29 15:30 49.61503 11.23306 2979 ft 146 kts 214°
2026-04-29 15:30 49.60674 11.22306 2987 ft 156 kts 215°
2026-04-29 15:31 49.59811 11.21273 2997 ft 156 kts 210°
2026-04-29 15:31 49.58890 11.20364 2993 ft 157 kts 207°
2026-04-29 15:31 49.57937 11.19580 2995 ft 158 kts 202°
2026-04-29 15:31 49.56951 11.18808 2999 ft 160 kts 206°
2026-04-29 15:32 49.56143 11.17608 2963 ft 165 kts 232°
2026-04-29 15:32 49.55493 11.16144 2926 ft 165 kts 233°
2026-04-29 15:32 49.54774 11.14754 2838 ft 165 kts 226°
2026-04-29 15:32 49.54018 11.13437 2752 ft 162 kts 224°
2026-04-29 15:33 49.53274 11.12164 2678 ft 158 kts 224°
2026-04-29 15:33 49.52529 11.10892 2473 ft 164 kts 225°
2026-04-29 15:33 49.51777 11.09638 2363 ft 159 kts 226°
2026-04-29 15:33 49.50936 11.08712 2220 ft 145 kts 166°
2026-04-29 15:34 49.50504 11.09743 2135 ft 123 kts 76°
2026-04-29 15:34 49.51105 11.10440 2168 ft 124 kts 355°
2026-04-29 15:34 49.51699 11.09384 2050 ft 145 kts 289°
2026-04-29 15:34 49.51725 11.08359 2072 ft 145 kts 265°
2026-04-29 15:35 49.51594 11.06340 2053 ft 138 kts 267°
2026-04-29 15:35 49.51472 11.04882 2052 ft 136 kts 264°
2026-04-29 15:35 49.51337 11.03394 2054 ft 144 kts 264°
2026-04-29 15:35 49.51240 11.02373 2061 ft 146 kts 263°
2026-04-29 15:36 49.51112 11.00806 2069 ft 148 kts 265°
2026-04-29 15:36 49.50965 10.99227 2064 ft 151 kts 263°
2026-04-29 15:36 49.50801 10.97616 2066 ft 154 kts 262°
2026-04-29 15:36 49.50233 10.96275 2055 ft 153 kts 205°
2026-04-29 15:37 49.49265 10.96220 2057 ft 136 kts 147°
2026-04-29 15:37 49.48754 10.97292 2072 ft 124 kts 95°
2026-04-29 15:37 49.49011 10.98512 2050 ft 123 kts 60°
2026-04-29 15:37 49.49533 10.99577 1962 ft 127 kts 53°
2026-04-29 15:38 49.49997 11.00742 1810 ft 128 kts 65°
2026-04-29 15:38 49.50287 11.02059 1598 ft 130 kts 75°
2026-04-29 15:38 49.50308 11.03445 1367 ft 133 kts 96°
2026-04-29 15:38 49.50164 11.04830 1243 ft 127 kts 94°
2026-04-29 15:39 49.50028 11.06180 1060 ft 127 kts 97°
2026-04-29 15:39 49.49903 11.07465 1048 ft 115 kts 96°
2026-04-29 15:39 49.49792 11.08607 1079 ft 103 kts 94°
2026-04-29 15:39 49.49684 11.09729 1274 ft 115 kts 95°
2026-04-29 15:40 49.49586 11.11012 1578 ft 125 kts 94°
2026-04-29 15:40 49.49857 11.12244 1834 ft 138 kts 37°
2026-04-29 15:40 49.50806 11.12638 2042 ft 147 kts 16°
2026-04-29 15:40 49.51836 11.12908 2173 ft 156 kts
2026-04-29 15:41 49.52781 11.11956 2222 ft 181 kts 301°
2026-04-29 15:41 49.53054 11.10057 2368 ft 182 kts 280°
2026-04-29 15:41 49.53128 11.08115 2409 ft 186 kts 274°
2026-04-29 15:41 49.53125 11.06110 2506 ft 188 kts 270°
2026-04-29 15:42 49.53080 11.04082 2566 ft 189 kts 269°
2026-04-29 15:42 49.52974 11.02026 2573 ft 193 kts 265°
2026-04-29 15:42 49.52930 10.99966 2615 ft 193 kts 276°
2026-04-29 15:42 49.52907 10.97957 2461 ft 187 kts 252°
2026-04-29 15:43 49.52018 10.96650 2171 ft 179 kts 193°
2026-04-29 15:43 49.50983 10.97161 2019 ft 151 kts 121°
2026-04-29 15:43 49.50726 10.98626 1884 ft 142 kts 99°
2026-04-29 15:43 49.50531 11.00136 1675 ft 143 kts 96°
2026-04-29 15:44 49.50408 11.01638 1531 ft 138 kts 98°
2026-04-29 15:44 49.50316 11.03119 1346 ft 139 kts 93°
2026-04-29 15:44 49.50187 11.04578 1220 ft 137 kts 95°